createdAt,value
2023-02-09T00:01:32.979Z,100.00
2023-02-09T00:04:02.945Z,100.00
2023-02-09T00:06:33.480Z,100.00
2023-02-09T00:09:03.708Z,100.00
2023-02-09T00:11:51.658Z,100.00
2023-02-09T00:14:22.303Z,100.00
2023-02-09T00:16:52.363Z,100.00
2023-02-09T00:19:22.579Z,100.00
2023-02-09T00:21:51.428Z,100.00
2023-02-09T00:24:20.483Z,100.00
2023-02-09T00:26:49.544Z,100.00
2023-02-09T00:29:20.469Z,100.00
2023-02-09T00:31:49.624Z,100.00
2023-02-09T00:34:19.824Z,100.00
2023-02-09T00:36:48.504Z,100.00
2023-02-09T00:39:17.191Z,100.00
2023-02-09T00:42:03.931Z,100.00
2023-02-09T00:44:32.956Z,100.00
2023-02-09T00:47:02.453Z,100.00
2023-02-09T00:49:31.764Z,100.00
2023-02-09T00:52:00.620Z,100.00
2023-02-09T00:54:29.220Z,100.00
2023-02-09T00:56:59.381Z,100.00
2023-02-09T00:59:28.108Z,100.00
2023-02-09T01:01:57.877Z,100.00
2023-02-09T01:04:26.690Z,100.00
2023-02-09T01:06:55.418Z,100.00
2023-02-09T01:09:24.077Z,100.00
2023-02-09T01:11:52.684Z,100.00
2023-02-09T01:14:21.296Z,100.00
2023-02-09T01:16:49.977Z,100.00
2023-02-09T01:19:18.650Z,100.00
2023-02-09T01:21:48.845Z,100.00
2023-02-09T01:24:17.671Z,100.00
2023-02-09T01:26:47.076Z,100.00
2023-02-09T01:29:18.212Z,100.00
2023-02-09T01:31:48.220Z,100.00
2023-02-09T01:34:19.328Z,100.00
2023-02-09T01:36:48.553Z,100.00
2023-02-09T01:39:17.383Z,100.00
2023-02-09T01:41:45.970Z,100.00
2023-02-09T01:44:17.771Z,100.00
2023-02-09T01:46:46.733Z,100.00
2023-02-09T01:51:37.910Z,100.00
2023-02-09T01:54:12.624Z,100.00
2023-02-09T01:56:43.947Z,100.00
2023-02-09T01:59:12.917Z,100.00
2023-02-09T02:01:43.917Z,100.00
2023-02-09T02:04:12.785Z,100.00
2023-02-09T02:06:41.942Z,100.00
2023-02-09T02:09:16.610Z,100.00
2023-02-09T02:11:48.672Z,100.00
2023-02-09T02:14:32.220Z,100.00
2023-02-09T02:17:23.555Z,100.00
2023-02-09T02:20:22.287Z,100.00
2023-02-09T02:23:15.559Z,100.00
2023-02-09T02:25:51.462Z,100.00
2023-02-09T02:28:44.712Z,100.00
2023-02-09T02:31:40.660Z,100.00
2023-02-09T02:34:30.780Z,100.00
2023-02-09T02:37:11.158Z,100.00
2023-02-09T02:39:59.221Z,100.00
2023-02-09T02:42:52.355Z,100.00
2023-02-09T02:45:26.687Z,100.00
2023-02-09T02:48:14.966Z,100.00
2023-02-09T02:50:50.732Z,100.00
2023-02-09T02:53:21.472Z,100.00
2023-02-09T02:55:51.352Z,100.00
2023-02-09T02:58:23.385Z,100.00
2023-02-09T03:00:55.318Z,100.00
2023-02-09T03:03:31.398Z,100.00
2023-02-09T03:06:02.710Z,100.00
2023-02-09T03:08:33.816Z,100.00
2023-02-09T03:11:02.867Z,100.00
2023-02-09T03:13:40.216Z,100.00
2023-02-09T03:16:23.637Z,100.00
2023-02-09T03:19:16.708Z,100.00
2023-02-09T03:22:01.122Z,100.00
2023-02-09T03:24:36.761Z,100.00
2023-02-09T03:27:20.906Z,100.00
2023-02-09T03:29:52.815Z,100.00
2023-02-09T03:32:23.680Z,100.00
2023-02-09T03:34:53.129Z,100.00
2023-02-09T03:37:21.888Z,100.00
2023-02-09T03:39:51.025Z,100.00
2023-02-09T03:42:20.000Z,100.00
2023-02-09T03:44:48.906Z,100.00
2023-02-09T03:47:20.663Z,100.00
2023-02-09T03:49:49.449Z,100.00
2023-02-09T03:52:18.705Z,100.00
2023-02-09T03:54:48.180Z,100.00
2023-02-09T03:57:17.090Z,100.00
2023-02-09T03:59:46.535Z,100.00
2023-02-09T04:02:15.679Z,100.00
2023-02-09T04:04:44.656Z,100.00
2023-02-09T04:07:16.760Z,100.00
2023-02-09T04:09:45.533Z,100.00
2023-02-09T04:12:23.237Z,100.00
2023-02-09T04:14:55.002Z,100.00
2023-02-09T04:17:24.166Z,100.00
2023-02-09T04:19:52.921Z,100.00
2023-02-09T04:22:21.851Z,100.00
2023-02-09T04:24:50.820Z,100.00
2023-02-09T04:27:19.467Z,100.00
2023-02-09T04:29:48.364Z,100.00
2023-02-09T04:32:17.411Z,100.00
2023-02-09T04:34:46.350Z,100.00
2023-02-09T04:37:17.762Z,100.00
2023-02-09T04:39:47.187Z,100.00
2023-02-09T04:42:16.076Z,100.00
2023-02-09T04:44:44.956Z,100.00
2023-02-09T04:47:13.961Z,100.00
2023-02-09T04:49:44.781Z,100.00
2023-02-09T04:52:15.382Z,100.00
2023-02-09T04:54:46.155Z,100.00
2023-02-09T04:57:32.893Z,100.00
2023-02-09T05:00:06.207Z,100.00
2023-02-09T05:02:36.796Z,100.00
2023-02-09T05:05:06.195Z,100.00
2023-02-09T05:07:35.148Z,100.00
2023-02-09T05:10:04.085Z,100.00
2023-02-09T05:12:33.090Z,100.00
2023-02-09T05:15:05.416Z,100.00
2023-02-09T05:17:37.021Z,100.00
2023-02-09T05:20:06.419Z,100.00
2023-02-09T05:22:37.049Z,100.00
2023-02-09T05:25:12.078Z,100.00
2023-02-09T05:27:44.466Z,100.00
2023-02-09T05:30:21.840Z,100.00
2023-02-09T05:32:53.601Z,100.00
2023-02-09T05:35:28.185Z,100.00
2023-02-09T05:38:13.432Z,100.00
2023-02-09T05:40:45.130Z,100.00
2023-02-09T05:43:18.712Z,100.00
2023-02-09T05:45:54.135Z,100.00
2023-02-09T05:48:44.334Z,100.00
2023-02-09T05:51:30.960Z,100.00
2023-02-09T05:54:15.538Z,100.00
2023-02-09T05:57:11.219Z,100.00
2023-02-09T05:59:48.572Z,100.00
2023-02-09T06:02:27.175Z,100.00
2023-02-09T06:05:03.192Z,100.00
2023-02-09T06:07:39.183Z,100.00
2023-02-09T06:10:20.682Z,100.00
2023-02-09T06:13:10.269Z,100.00
2023-02-09T06:15:39.528Z,100.00
2023-02-09T06:18:31.776Z,100.00
2023-02-09T06:24:14.842Z,100.00
2023-02-09T06:27:09.687Z,100.00
2023-02-09T06:29:53.923Z,100.00
2023-02-09T06:39:13.959Z,100.00
2023-02-09T06:45:16.562Z,100.00
2023-02-09T06:48:27.520Z,100.00
2023-02-09T06:59:58.280Z,100.00
2023-02-09T07:02:46.816Z,100.00
2023-02-09T07:05:53.671Z,100.00
2023-02-09T07:33:52.384Z,100.00
2023-02-09T07:36:30.797Z,100.00
2023-02-09T07:39:05.726Z,100.00
2023-02-09T07:42:03.139Z,100.00
2023-02-09T07:48:17.059Z,100.00
2023-02-09T07:50:51.283Z,100.00
2023-02-09T07:56:43.926Z,100.00
2023-02-09T07:59:41.957Z,100.00
2023-02-09T08:06:09.139Z,100.00
2023-02-09T08:06:19.456Z,100.00
2023-02-09T08:08:56.048Z,98.77
2023-02-09T08:11:58.402Z,90.45
2023-02-09T08:14:44.747Z,82.53
2023-02-09T08:17:35.645Z,80.13
2023-02-09T08:20:15.668Z,80.43
2023-02-09T08:23:50.372Z,77.72
2023-02-09T08:25:55.813Z,74.78
2023-02-09T08:28:58.238Z,74.27
2023-02-09T08:34:32.265Z,67.28
2023-02-09T08:37:24.543Z,65.96
2023-02-09T08:39:59.312Z,64.23
2023-02-09T08:42:33.012Z,62.62
2023-02-09T08:45:12.923Z,61.54
2023-02-09T08:54:20.922Z,56.81
2023-02-09T09:03:29.295Z,56.67
2023-02-09T09:06:35.018Z,55.70
2023-02-09T09:12:07.713Z,55.62
2023-02-09T09:14:42.108Z,54.10
2023-02-09T09:20:20.683Z,56.72
2023-02-09T09:22:53.350Z,57.37
2023-02-09T09:28:52.385Z,56.99
2023-02-09T09:31:53.782Z,56.24
2023-02-09T09:34:22.841Z,55.98
2023-02-09T09:36:58.001Z,56.66
2023-02-09T09:39:39.472Z,54.45
2023-02-09T09:42:15.583Z,53.50
2023-02-09T09:44:49.178Z,53.59
2023-02-09T09:47:23.186Z,53.94
2023-02-09T10:53:22.005Z,46.06
2023-02-09T10:55:53.885Z,45.21
2023-02-09T10:58:29.882Z,44.53
2023-02-09T11:01:22.159Z,44.52
2023-02-09T11:04:05.784Z,44.37
2023-02-09T11:06:57.360Z,43.85
2023-02-09T11:09:38.715Z,43.68
2023-02-09T11:12:12.160Z,43.54
2023-02-09T11:14:43.851Z,42.49
2023-02-09T11:17:38.397Z,43.01
2023-02-09T11:20:29.953Z,43.26
2023-02-09T11:23:16.543Z,42.46
2023-02-09T11:25:51.126Z,42.42
2023-02-09T11:28:28.359Z,42.68
2023-02-09T11:31:06.177Z,44.08
2023-02-09T11:34:00.630Z,43.15
2023-02-09T11:36:55.756Z,42.38
2023-02-09T11:39:32.218Z,42.67
2023-02-09T11:42:28.369Z,42.75
2023-02-09T11:45:24.706Z,41.82
2023-02-09T11:48:33.683Z,41.51
2023-02-09T11:51:17.857Z,42.35
2023-02-09T11:54:07.342Z,42.09
2023-02-09T11:56:56.498Z,42.47
2023-02-09T12:09:53.529Z,41.96
2023-02-09T12:12:50.063Z,41.46
2023-02-09T12:15:37.019Z,41.63
2023-02-09T12:18:29.458Z,42.30
2023-02-09T12:21:01.488Z,41.49
2023-02-09T12:23:43.400Z,41.65
2023-02-09T12:26:18.092Z,41.97
2023-02-09T12:28:49.558Z,41.62
2023-02-09T12:31:32.354Z,42.15
2023-02-09T12:34:22.818Z,42.51
2023-02-09T12:37:00.538Z,43.44
2023-02-09T12:39:31.604Z,43.56
2023-02-09T12:42:13.651Z,41.71
2023-02-09T12:44:58.257Z,42.84
2023-02-09T12:47:44.945Z,42.14
2023-02-09T12:50:47.718Z,42.89
2023-02-09T12:53:37.120Z,42.67
2023-02-09T12:59:25.702Z,43.23
2023-02-09T13:05:33.974Z,41.92
2023-02-09T13:08:31.166Z,43.23
2023-02-09T13:11:21.548Z,42.38
2023-02-09T13:13:57.176Z,43.92
2023-02-09T13:16:36.683Z,45.20
2023-02-09T13:19:20.678Z,42.99
2023-02-09T13:22:04.980Z,43.64
2023-02-09T13:24:48.956Z,42.69
2023-02-09T13:30:49.451Z,42.55
2023-02-09T13:38:05.944Z,43.09
2023-02-09T13:40:23.897Z,45.23
2023-02-09T13:46:30.709Z,44.30
2023-02-09T13:58:12.582Z,43.09
2023-02-09T14:04:36.780Z,43.62
2023-02-09T14:07:34.005Z,44.42
2023-02-09T14:10:24.859Z,44.46
2023-02-09T14:13:06.707Z,44.50
2023-02-09T14:15:58.955Z,45.61
2023-02-09T14:18:52.896Z,44.52
2023-02-09T14:21:38.315Z,45.63
2023-02-09T14:24:41.249Z,45.46
2023-02-09T14:31:10.014Z,45.68
2023-02-09T14:33:48.952Z,44.67
2023-02-09T14:36:42.987Z,46.56
2023-02-09T14:52:15.899Z,53.59
2023-02-09T14:55:31.729Z,54.46
2023-02-09T14:58:35.787Z,53.76
2023-02-09T15:07:21.806Z,56.30
2023-02-09T15:13:27.796Z,57.37
2023-02-09T15:16:15.534Z,61.62
2023-02-09T15:22:07.397Z,61.90
2023-02-09T15:25:00.931Z,62.80
2023-02-09T15:30:51.162Z,62.83
2023-02-09T15:33:27.469Z,61.79
2023-02-09T15:36:06.474Z,62.80
2023-02-09T15:38:41.117Z,61.79
2023-02-09T15:41:38.755Z,68.87
2023-02-09T15:44:54.473Z,66.95
2023-02-09T15:47:42.205Z,68.68
2023-02-09T15:50:49.535Z,71.05
2023-02-09T15:57:44.508Z,71.04
2023-02-09T16:00:05.052Z,70.00
2023-02-09T16:06:06.084Z,70.15
2023-02-09T16:08:48.783Z,70.55
2023-02-09T16:12:00.904Z,77.42
2023-02-09T16:14:25.868Z,75.80
2023-02-09T16:17:12.429Z,77.12
2023-02-09T16:19:55.350Z,78.03
2023-02-09T16:22:28.966Z,79.42
2023-02-09T16:24:59.763Z,79.96
2023-02-09T16:27:36.683Z,75.96
2023-02-09T16:30:11.589Z,77.76
2023-02-09T16:32:40.567Z,86.96
2023-02-09T16:35:16.972Z,84.11
2023-02-09T16:38:06.275Z,84.84
2023-02-09T16:40:40.529Z,87.55
2023-02-09T16:43:22.848Z,87.44
2023-02-09T16:46:03.399Z,92.20
2023-02-09T16:48:29.112Z,97.42
2023-02-09T16:51:05.636Z,95.88
2023-02-09T16:53:48.913Z,95.27
2023-02-09T16:56:23.748Z,90.52
2023-02-09T16:58:53.356Z,91.16
2023-02-09T17:01:26.742Z,89.92
2023-02-09T17:03:57.897Z,92.02
2023-02-09T17:06:30.049Z,91.78
2023-02-09T17:09:07.606Z,93.92
2023-02-09T17:11:39.554Z,93.53
2023-02-09T17:14:11.059Z,94.30
2023-02-09T17:16:44.914Z,100.00
2023-02-09T17:19:21.786Z,96.21
2023-02-09T17:22:06.377Z,99.31
2023-02-09T17:24:45.752Z,97.88
2023-02-09T17:27:31.197Z,100.00
2023-02-09T17:33:10.383Z,100.00
2023-02-09T17:38:29.655Z,100.00
2023-02-09T17:41:03.716Z,100.00
2023-02-09T17:43:44.123Z,100.00
2023-02-09T17:46:32.978Z,100.00
2023-02-09T17:49:20.206Z,100.00
2023-02-09T17:51:57.692Z,100.00
2023-02-09T17:54:47.386Z,100.00
2023-02-09T17:57:31.148Z,100.00
2023-02-09T18:03:47.307Z,100.00
2023-02-09T18:06:21.646Z,100.00
2023-02-09T18:14:50.983Z,100.00
2023-02-09T18:17:23.263Z,100.00
2023-02-09T18:20:18.425Z,100.00
2023-02-09T18:26:20.866Z,100.00
2023-02-09T18:38:53.194Z,100.00
2023-02-09T18:50:12.247Z,100.00
2023-02-09T18:56:14.874Z,100.00
2023-02-09T18:59:04.389Z,100.00
2023-02-09T19:01:46.046Z,100.00
2023-02-09T19:04:26.435Z,100.00
2023-02-09T19:07:24.998Z,100.00
2023-02-09T19:10:20.445Z,100.00
2023-02-09T19:12:57.471Z,100.00
2023-02-09T19:18:40.468Z,100.00
2023-02-09T19:21:11.582Z,100.00
2023-02-09T19:24:14.576Z,100.00
2023-02-09T19:26:44.691Z,100.00
2023-02-09T19:29:30.765Z,100.00
2023-02-09T19:35:02.808Z,100.00
2023-02-09T19:40:17.953Z,100.00
2023-02-09T19:46:22.919Z,100.00
2023-02-09T19:49:28.977Z,100.00
2023-02-09T19:58:15.946Z,100.00
2023-02-09T20:01:08.672Z,100.00
2023-02-09T20:03:59.428Z,100.00
2023-02-09T20:06:45.447Z,100.00
2023-02-09T20:09:56.214Z,100.00
2023-02-09T20:19:09.213Z,100.00
2023-02-09T20:22:09.365Z,100.00
2023-02-09T20:24:30.741Z,100.00
2023-02-09T20:30:29.637Z,100.00
2023-02-09T20:33:31.395Z,100.00
2023-02-09T20:42:15.327Z,100.00
2023-02-09T20:51:46.296Z,100.00
2023-02-09T20:57:40.844Z,100.00
2023-02-09T21:00:17.646Z,100.00
2023-02-09T21:08:53.689Z,100.00
2023-02-09T21:15:34.046Z,100.00
2023-02-09T21:17:53.773Z,100.00
2023-02-09T21:26:57.616Z,100.00
2023-02-09T21:32:55.112Z,100.00
2023-02-09T21:35:44.782Z,100.00
2023-02-09T22:03:59.080Z,100.00
2023-02-09T22:06:30.214Z,100.00
2023-02-09T22:09:00.756Z,100.00
2023-02-09T22:11:29.413Z,100.00
2023-02-09T22:16:49.342Z,100.00
2023-02-09T22:19:29.770Z,100.00
2023-02-09T22:22:00.747Z,100.00
2023-02-09T22:24:40.263Z,100.00
2023-02-09T22:27:17.373Z,100.00
2023-02-09T22:29:49.235Z,100.00
2023-02-09T22:32:23.521Z,100.00
2023-02-09T22:35:05.331Z,100.00
2023-02-09T22:37:38.653Z,100.00
2023-02-09T22:40:10.258Z,100.00
2023-02-09T22:42:39.277Z,100.00
2023-02-09T22:45:08.835Z,100.00
2023-02-09T22:47:37.966Z,100.00
2023-02-09T22:50:08.120Z,100.00
2023-02-09T22:52:38.507Z,100.00
2023-02-09T22:55:12.995Z,100.00
2023-02-09T22:57:44.680Z,100.00
2023-02-09T23:00:19.503Z,100.00
2023-02-09T23:02:49.032Z,100.00
2023-02-09T23:05:21.691Z,100.00
2023-02-09T23:07:50.612Z,100.00
2023-02-09T23:10:20.280Z,100.00
2023-02-09T23:12:50.102Z,100.00
2023-02-09T23:15:20.825Z,100.00
2023-02-09T23:17:49.595Z,100.00
2023-02-09T23:20:19.092Z,100.00
2023-02-09T23:22:49.308Z,100.00
2023-02-09T23:25:18.240Z,100.00
2023-02-09T23:27:47.071Z,100.00
2023-02-09T23:30:17.248Z,100.00
2023-02-09T23:32:46.112Z,100.00
2023-02-09T23:35:15.119Z,100.00
2023-02-09T23:37:46.570Z,100.00
2023-02-09T23:40:15.446Z,100.00
2023-02-09T23:42:45.943Z,100.00
2023-02-09T23:45:16.335Z,100.00
2023-02-09T23:47:45.377Z,100.00
2023-02-09T23:50:15.773Z,100.00
2023-02-09T23:55:26.914Z,100.00
2023-02-09T23:57:55.004Z,100.00
